createdAt,value
2017-09-12T00:01:06.318Z,89.15
2017-09-12T00:03:07.909Z,89.05
2017-09-12T00:05:09.324Z,88.86
2017-09-12T00:07:10.749Z,88.19
2017-09-12T00:09:12.164Z,89.81
2017-09-12T00:11:13.592Z,88.76
2017-09-12T00:13:15.008Z,88.95
2017-09-12T00:15:16.426Z,88.38
2017-09-12T00:17:17.857Z,89.15
2017-09-12T00:19:19.252Z,89.43
2017-09-12T00:21:20.671Z,88.48
2017-09-12T00:24:03.084Z,88.86
2017-09-12T00:26:04.499Z,88.38
2017-09-12T00:28:05.914Z,88.38
2017-09-12T00:30:07.815Z,89.24
2017-09-12T00:32:09.403Z,88.38
2017-09-12T00:34:10.799Z,89.15
2017-09-12T00:36:12.214Z,88.48
2017-09-12T00:38:13.627Z,90.01
2017-09-12T00:40:15.048Z,89.43
2017-09-12T00:42:16.505Z,89.77
2017-09-12T00:44:17.952Z,89.34
2017-09-12T00:46:19.455Z,89.53
2017-09-12T00:48:20.846Z,89.81
2017-09-12T00:50:22.349Z,89.72
2017-09-12T00:52:23.844Z,88.48
2017-09-12T00:54:25.271Z,88.48
2017-09-12T00:56:26.829Z,88.57
2017-09-12T00:58:28.304Z,88.95
2017-09-12T01:00:29.803Z,88.57
2017-09-12T01:02:31.276Z,89.15
2017-09-12T01:04:32.842Z,89.62
2017-09-12T01:06:34.286Z,89.81
2017-09-12T01:08:35.763Z,89.91
2017-09-12T01:10:37.259Z,90.01
2017-09-12T01:12:38.784Z,89.77
2017-09-12T01:14:40.261Z,90.10
2017-09-12T01:16:41.806Z,89.81
2017-09-12T01:18:43.388Z,89.43
2017-09-12T01:20:44.841Z,90.01
2017-09-12T01:22:46.348Z,89.91
2017-09-12T01:24:47.821Z,89.58
2017-09-12T01:27:30.217Z,89.81
2017-09-12T01:29:31.706Z,89.96
2017-09-12T01:31:33.087Z,89.81
2017-09-12T01:33:34.612Z,89.81
2017-09-12T01:35:36.010Z,89.43
2017-09-12T01:37:37.439Z,89.53
2017-09-12T01:39:38.851Z,89.05
2017-09-12T01:41:40.303Z,88.67
2017-09-12T01:43:41.729Z,89.53
2017-09-12T01:45:43.142Z,89.72
2017-09-12T01:47:44.561Z,89.81
2017-09-12T01:49:46.010Z,89.91
2017-09-12T01:51:47.419Z,90.30
2017-09-12T01:53:48.844Z,90.01
2017-09-12T01:55:50.295Z,89.81
2017-09-12T01:58:33.588Z,89.81
2017-09-12T02:00:35.010Z,90.20
2017-09-12T02:02:36.644Z,90.30
2017-09-12T02:04:38.050Z,90.10
2017-09-12T02:06:39.457Z,89.62
2017-09-12T02:08:40.874Z,89.81
2017-09-12T02:10:42.297Z,90.48
2017-09-12T02:12:43.768Z,90.87
2017-09-12T02:15:26.157Z,91.06
2017-09-12T02:17:27.577Z,91.49
2017-09-12T02:19:28.990Z,91.02
2017-09-12T02:21:30.406Z,91.88
2017-09-12T02:23:32.057Z,91.49
2017-09-12T02:25:34.113Z,90.58
2017-09-12T02:27:35.823Z,90.58
2017-09-12T02:29:37.257Z,90.82
2017-09-12T02:31:38.669Z,91.11
2017-09-12T02:33:40.086Z,91.20
2017-09-12T02:35:41.504Z,91.02
2017-09-12T02:37:42.942Z,90.44
2017-09-12T02:39:44.719Z,90.63
2017-09-12T02:41:46.192Z,90.44
2017-09-12T02:43:47.738Z,91.06
2017-09-12T02:45:49.338Z,90.82
2017-09-12T02:47:50.854Z,91.11
2017-09-12T02:49:52.421Z,90.53
2017-09-12T02:51:53.863Z,90.67
2017-09-12T02:53:55.307Z,90.01
2017-09-12T02:55:56.853Z,89.87
2017-09-12T02:57:58.300Z,90.06
2017-09-12T02:59:59.767Z,89.96
2017-09-12T03:02:01.247Z,90.48
2017-09-12T03:04:02.714Z,89.81
2017-09-12T03:06:04.204Z,90.01
2017-09-12T03:08:05.749Z,89.72
2017-09-12T03:10:07.222Z,90.20
2017-09-12T03:12:08.721Z,90.48
2017-09-12T03:14:10.309Z,90.10
2017-09-12T03:16:11.733Z,89.96
2017-09-12T03:18:13.207Z,89.96
2017-09-12T03:20:14.712Z,89.91
2017-09-12T03:22:16.210Z,89.91
2017-09-12T03:24:17.740Z,89.91
2017-09-12T03:26:19.227Z,89.67
2017-09-12T03:28:20.712Z,90.92
2017-09-12T03:30:22.144Z,90.44
2017-09-12T03:32:23.569Z,91.30
2017-09-12T03:34:24.993Z,90.44
2017-09-12T03:36:26.422Z,91.30
2017-09-12T03:38:27.853Z,91.20
2017-09-12T03:40:29.266Z,91.20
2017-09-12T03:42:30.687Z,91.20
2017-09-12T03:44:32.118Z,90.44
2017-09-12T03:46:33.544Z,90.44
2017-09-12T03:48:35.253Z,90.53
2017-09-12T03:50:36.656Z,91.11
2017-09-12T03:52:38.083Z,91.02
2017-09-12T03:54:39.499Z,90.63
2017-09-12T03:56:40.978Z,90.73
2017-09-12T03:58:42.554Z,91.30
2017-09-12T04:00:44.103Z,90.82
2017-09-12T04:02:45.567Z,91.02
2017-09-12T04:04:47.074Z,91.11
2017-09-12T04:06:48.498Z,90.63
2017-09-12T04:08:49.912Z,91.11
2017-09-12T04:10:51.330Z,90.63
2017-09-12T04:12:52.739Z,91.11
2017-09-12T04:14:54.159Z,91.30
2017-09-12T04:16:55.573Z,90.44
2017-09-12T04:18:57.033Z,90.34
2017-09-12T04:20:58.564Z,89.96
2017-09-12T04:23:00.047Z,90.06
2017-09-12T04:25:01.520Z,89.96
2017-09-12T04:27:03.089Z,89.96
2017-09-12T04:29:04.549Z,90.16
2017-09-12T04:31:06.029Z,90.63
2017-09-12T04:33:07.595Z,90.82
2017-09-12T04:35:09.014Z,90.92
2017-09-12T04:37:51.415Z,90.25
2017-09-12T04:39:52.831Z,90.63
2017-09-12T04:41:54.250Z,91.20
2017-09-12T04:43:55.668Z,91.39
2017-09-12T04:45:57.083Z,91.30
2017-09-12T04:47:58.608Z,91.39
2017-09-12T04:50:00.162Z,91.11
2017-09-12T04:52:01.496Z,90.73
2017-09-12T04:54:02.935Z,91.39
2017-09-12T04:56:04.337Z,91.97
2017-09-12T04:58:05.815Z,91.78
2017-09-12T05:00:07.268Z,91.97
2017-09-12T05:02:08.803Z,92.54
2017-09-12T05:04:10.350Z,92.83
2017-09-12T05:06:11.925Z,93.12
2017-09-12T05:08:13.344Z,92.74
2017-09-12T05:10:14.765Z,92.54
2017-09-12T05:12:16.173Z,93.31
2017-09-12T05:14:17.601Z,93.21
2017-09-12T05:16:19.016Z,93.21
2017-09-12T05:18:20.435Z,92.64
2017-09-12T05:20:21.853Z,92.83
2017-09-12T05:22:23.283Z,92.74
2017-09-12T05:25:05.688Z,92.45
2017-09-12T05:27:07.653Z,93.31
2017-09-12T05:29:09.089Z,93.60
2017-09-12T05:31:10.504Z,93.60
2017-09-12T05:33:11.920Z,93.31
2017-09-12T05:35:13.347Z,93.02
2017-09-12T05:37:14.778Z,92.74
2017-09-12T05:39:16.190Z,93.12
2017-09-12T05:41:17.608Z,93.21
2017-09-12T05:43:19.020Z,93.21
2017-09-12T05:45:20.440Z,93.60
2017-09-12T05:47:21.880Z,93.50
2017-09-12T05:49:23.293Z,93.21
2017-09-12T05:51:24.732Z,92.74
2017-09-12T05:53:26.151Z,93.60
2017-09-12T05:55:27.567Z,93.40
2017-09-12T05:57:28.987Z,93.02
2017-09-12T05:59:30.414Z,93.31
2017-09-12T06:01:31.910Z,93.50
2017-09-12T06:03:33.317Z,93.40
2017-09-12T06:05:34.908Z,93.12
2017-09-12T06:07:36.371Z,92.54
2017-09-12T06:09:37.794Z,92.83
2017-09-12T06:12:20.811Z,93.21
2017-09-12T06:14:22.250Z,93.02
2017-09-12T06:16:23.681Z,92.83
2017-09-12T06:18:25.099Z,92.54
2017-09-12T06:20:26.521Z,92.74
2017-09-12T06:22:27.949Z,92.54
2017-09-12T06:24:29.385Z,92.16
2017-09-12T06:26:30.808Z,92.83
2017-09-12T06:28:32.285Z,92.83
2017-09-12T06:30:33.700Z,91.97
2017-09-12T06:32:35.125Z,92.16
2017-09-12T06:34:36.618Z,92.16
2017-09-12T06:36:38.057Z,92.16
2017-09-12T06:38:39.479Z,92.49
2017-09-12T06:40:40.911Z,91.16
2017-09-12T06:42:42.384Z,90.67
2017-09-12T06:44:43.861Z,91.35
2017-09-12T06:46:45.339Z,91.44
2017-09-12T06:48:46.813Z,91.06
2017-09-12T06:50:48.231Z,91.44
2017-09-12T06:52:49.764Z,90.48
2017-09-12T06:54:51.247Z,89.81
2017-09-12T06:56:52.670Z,91.16
2017-09-12T06:59:35.069Z,91.16
2017-09-12T07:01:36.488Z,91.44
2017-09-12T07:03:38.037Z,90.20
2017-09-12T07:05:39.489Z,90.67
2017-09-12T07:07:40.977Z,90.25
2017-09-12T07:09:42.394Z,90.87
2017-09-12T07:11:43.818Z,90.48
2017-09-12T07:13:45.231Z,90.48
2017-09-12T07:15:46.653Z,90.87
2017-09-12T07:17:48.082Z,90.10
2017-09-12T07:19:49.498Z,90.44
2017-09-12T07:21:50.917Z,89.29
2017-09-12T07:23:52.340Z,88.23
2017-09-12T07:25:53.759Z,87.47
2017-09-12T07:27:55.185Z,87.47
2017-09-12T07:29:56.603Z,87.85
2017-09-12T07:31:58.025Z,88.76
2017-09-12T07:33:59.440Z,88.86
2017-09-12T07:36:00.861Z,88.67
2017-09-12T07:38:02.288Z,89.76
2017-09-12T07:40:03.712Z,88.43
2017-09-12T07:42:05.194Z,88.37
2017-09-12T07:44:06.862Z,87.32
2017-09-12T07:46:49.314Z,86.55
2017-09-12T07:48:50.739Z,86.46
2017-09-12T07:50:52.154Z,85.60
2017-09-12T07:52:53.572Z,86.27
2017-09-12T07:54:54.985Z,85.06
2017-09-12T07:56:56.816Z,83.63
2017-09-12T07:58:58.523Z,84.01
2017-09-12T08:00:59.956Z,83.19
2017-09-12T08:03:01.386Z,81.75
2017-09-12T08:05:02.805Z,81.31
2017-09-12T08:07:04.240Z,79.55
2017-09-12T08:09:05.662Z,81.41
2017-09-12T08:11:07.083Z,79.78
2017-09-12T08:13:08.508Z,78.63
2017-09-12T08:15:09.937Z,79.78
2017-09-12T08:17:11.350Z,78.92
2017-09-12T08:19:12.831Z,79.59
2017-09-12T08:21:14.283Z,79.88
2017-09-12T08:23:15.752Z,80.12
2017-09-12T08:25:17.196Z,79.26
2017-09-12T08:27:18.665Z,79.78
2017-09-12T08:29:20.106Z,79.39
2017-09-12T08:31:21.535Z,78.82
2017-09-12T08:33:22.962Z,78.47
2017-09-12T08:36:05.547Z,78.00
2017-09-12T08:38:06.961Z,76.07
2017-09-12T08:40:08.384Z,77.61
2017-09-12T08:42:09.814Z,76.46
2017-09-12T08:44:11.249Z,75.70
2017-09-12T08:46:12.675Z,75.70
2017-09-12T08:48:14.103Z,77.13
2017-09-12T08:50:15.528Z,75.21
2017-09-12T08:52:16.942Z,76.56
2017-09-12T08:54:18.369Z,76.46
2017-09-12T08:56:19.789Z,75.31
2017-09-12T08:58:21.213Z,75.60
2017-09-12T09:00:22.632Z,75.12
2017-09-12T09:02:24.072Z,76.07
2017-09-12T09:04:25.505Z,76.65
2017-09-12T09:07:08.139Z,75.06
2017-09-12T09:09:09.527Z,73.81
2017-09-12T09:11:11.245Z,73.68
2017-09-12T09:13:12.664Z,74.06
2017-09-12T09:15:14.085Z,73.49
2017-09-12T09:17:15.542Z,74.06
2017-09-12T09:19:16.969Z,73.83
2017-09-12T09:21:18.394Z,74.51
2017-09-12T09:23:19.828Z,74.79
2017-09-12T09:25:21.267Z,74.22
2017-09-12T09:27:22.683Z,74.12
2017-09-12T09:29:24.151Z,74.73
2017-09-12T09:31:25.574Z,72.78
2017-09-12T09:33:27.000Z,73.45
2017-09-12T09:35:28.421Z,74.16
2017-09-12T09:37:29.856Z,73.30
2017-09-12T09:39:31.282Z,72.14
2017-09-12T09:41:32.759Z,71.86
2017-09-12T09:43:34.233Z,71.19
2017-09-12T09:45:35.700Z,71.12
2017-09-12T09:47:37.218Z,71.12
2017-09-12T09:49:38.668Z,71.41
2017-09-12T09:51:40.082Z,72.05
2017-09-12T09:53:41.582Z,71.89
2017-09-12T09:55:43.002Z,71.95
2017-09-12T09:57:44.478Z,71.95
2017-09-12T09:59:45.885Z,72.81
2017-09-12T10:01:47.307Z,72.53
2017-09-12T10:03:48.733Z,72.56
2017-09-12T10:05:50.179Z,75.40
2017-09-12T10:07:51.598Z,79.53
2017-09-12T10:09:53.078Z,80.78
2017-09-12T10:11:54.630Z,81.35
2017-09-12T10:13:56.150Z,85.28
2017-09-12T10:15:57.695Z,82.41
2017-09-12T10:17:59.216Z,81.64
2017-09-12T10:20:00.690Z,85.38
2017-09-12T10:22:02.170Z,81.59
2017-09-12T10:24:03.659Z,78.13
2017-09-12T10:26:05.091Z,75.70
2017-09-12T10:28:06.511Z,77.23
2017-09-12T10:30:07.934Z,78.86
2017-09-12T10:32:09.357Z,78.47
2017-09-12T10:34:10.808Z,77.13
2017-09-12T10:36:12.319Z,75.70
2017-09-12T10:38:13.837Z,76.07
2017-09-12T10:40:15.267Z,73.81
2017-09-12T10:42:57.669Z,74.16
2017-09-12T10:44:59.090Z,76.46
2017-09-12T10:47:00.517Z,77.26
2017-09-12T10:49:01.988Z,74.48
2017-09-12T10:51:03.758Z,76.21
2017-09-12T10:53:05.412Z,75.35
2017-09-12T10:55:06.852Z,74.96
2017-09-12T10:57:49.268Z,73.81
2017-09-12T10:59:50.687Z,72.75
2017-09-12T11:01:52.112Z,71.98
2017-09-12T11:03:53.536Z,72.53
2017-09-12T11:05:54.958Z,72.91
2017-09-12T11:07:56.384Z,74.10
2017-09-12T11:09:57.810Z,74.52
2017-09-12T11:11:59.237Z,71.16
2017-09-12T11:14:00.711Z,69.59
2017-09-12T11:16:02.228Z,70.26
2017-09-12T11:18:03.710Z,71.61
2017-09-12T11:20:05.130Z,71.51
2017-09-12T11:22:06.608Z,70.45
2017-09-12T11:24:08.123Z,70.07
2017-09-12T11:26:09.612Z,69.11
2017-09-12T11:28:11.128Z,69.53
2017-09-12T11:30:12.580Z,67.80
2017-09-12T11:32:14.029Z,67.99
2017-09-12T11:34:15.456Z,67.61
2017-09-12T11:36:16.872Z,68.47
2017-09-12T11:38:18.417Z,69.43
2017-09-12T11:40:19.833Z,70.17
2017-09-12T11:42:21.264Z,71.66
2017-09-12T11:44:22.701Z,73.16
2017-09-12T11:46:24.120Z,75.18
2017-09-12T11:48:25.571Z,75.56
2017-09-12T11:50:26.994Z,75.40
2017-09-12T11:52:28.417Z,76.84
2017-09-12T11:54:29.843Z,76.46
2017-09-12T11:56:31.266Z,78.28
2017-09-12T11:58:32.689Z,79.44
2017-09-12T12:00:34.121Z,81.87
2017-09-12T12:02:35.549Z,79.47
2017-09-12T12:04:37.005Z,75.77
2017-09-12T12:06:38.561Z,75.67
2017-09-12T12:08:40.035Z,77.21
2017-09-12T12:10:41.613Z,76.64
2017-09-12T12:12:43.085Z,75.35
2017-09-12T12:14:44.573Z,77.75
2017-09-12T12:17:28.762Z,81.24
2017-09-12T12:19:30.187Z,77.40
2017-09-12T12:21:31.606Z,80.66
2017-09-12T12:23:33.080Z,79.61
2017-09-12T12:25:34.565Z,79.65
2017-09-12T12:27:36.053Z,76.86
2017-09-12T12:29:37.885Z,79.75
2017-09-12T12:31:39.760Z,79.17
2017-09-12T12:33:41.283Z,76.73
2017-09-12T12:35:42.731Z,79.13
2017-09-12T12:37:44.247Z,79.22
2017-09-12T12:39:45.724Z,76.54
2017-09-12T12:41:47.316Z,75.77
2017-09-12T12:43:48.895Z,72.89
2017-09-12T12:45:50.385Z,70.84
2017-09-12T12:47:51.830Z,75.21
2017-09-12T12:49:53.425Z,74.60
2017-09-12T12:51:54.849Z,75.65
2017-09-12T12:53:56.272Z,75.04
2017-09-12T12:55:57.696Z,75.39
2017-09-12T12:57:59.120Z,75.58
2017-09-12T13:00:00.542Z,75.64
2017-09-12T13:02:01.986Z,80.24
2017-09-12T13:04:44.375Z,82.38
2017-09-12T13:06:45.796Z,84.91
2017-09-12T13:08:47.584Z,85.25
2017-09-12T13:10:49.020Z,84.04
2017-09-12T13:12:50.462Z,82.70
2017-09-12T13:14:51.893Z,82.98
2017-09-12T13:16:53.316Z,82.35
2017-09-12T13:19:35.718Z,81.10
2017-09-12T13:21:37.148Z,82.84
2017-09-12T13:23:38.575Z,80.47
2017-09-12T13:25:40.003Z,79.80
2017-09-12T13:27:41.430Z,79.90
2017-09-12T13:29:43.017Z,80.19
2017-09-12T13:31:44.444Z,83.45
2017-09-12T13:33:45.884Z,78.65
2017-09-12T13:35:47.320Z,80.28
2017-09-12T13:37:48.768Z,78.17
2017-09-12T13:39:50.283Z,80.99
2017-09-12T13:41:51.801Z,75.77
2017-09-12T13:43:53.248Z,78.78
2017-09-12T13:45:54.747Z,73.41
2017-09-12T13:47:56.238Z,71.58
2017-09-12T13:49:57.753Z,71.93
2017-09-12T13:51:59.175Z,70.87
2017-09-12T13:54:00.607Z,72.41
2017-09-12T13:56:02.028Z,71.83
2017-09-12T13:58:03.464Z,71.93
2017-09-12T14:00:04.998Z,73.50
2017-09-12T14:02:06.549Z,69.72
2017-09-12T14:04:08.373Z,69.62
2017-09-12T14:06:09.783Z,70.87
2017-09-12T14:08:11.212Z,70.39
2017-09-12T14:10:12.645Z,68.60
2017-09-12T14:12:14.064Z,69.53
2017-09-12T14:14:15.494Z,67.90
2017-09-12T14:16:16.923Z,68.76
2017-09-12T14:18:18.340Z,66.84
2017-09-12T14:20:19.786Z,69.05
2017-09-12T14:22:21.212Z,69.43
2017-09-12T14:24:22.636Z,67.35
2017-09-12T14:26:24.060Z,63.51
2017-09-12T14:28:25.498Z,60.88
2017-09-12T14:30:26.933Z,63.09
2017-09-12T14:32:28.349Z,64.43
2017-09-12T14:34:29.792Z,63.96
2017-09-12T14:36:31.270Z,65.01
2017-09-12T14:39:13.964Z,63.86
2017-09-12T14:41:15.391Z,64.92
2017-09-12T14:43:16.816Z,65.97
2017-09-12T14:45:18.241Z,65.30
2017-09-12T14:47:19.671Z,65.97
2017-09-12T14:49:21.098Z,66.55
2017-09-12T14:51:22.524Z,66.00
2017-09-12T14:53:23.951Z,65.81
2017-09-12T14:56:06.348Z,68.02
2017-09-12T14:58:07.774Z,67.16
2017-09-12T15:00:09.198Z,65.43
2017-09-12T15:02:10.631Z,62.99
2017-09-12T15:04:12.066Z,63.25
2017-09-12T15:06:13.477Z,64.02
2017-09-12T15:08:14.907Z,65.27
2017-09-12T15:10:16.345Z,66.46
2017-09-12T15:12:17.827Z,66.26
2017-09-12T15:14:19.389Z,64.25
2017-09-12T15:16:20.817Z,65.69
2017-09-12T15:18:22.309Z,66.46
2017-09-12T15:20:23.835Z,65.88
2017-09-12T15:22:25.267Z,66.07
2017-09-12T15:24:26.764Z,65.88
2017-09-12T15:26:28.199Z,64.47
2017-09-12T15:28:29.702Z,64.92
2017-09-12T15:30:31.179Z,64.82
2017-09-12T15:32:32.779Z,65.94
2017-09-12T15:34:34.279Z,66.84
2017-09-12T15:36:35.802Z,64.92
2017-09-12T15:38:37.312Z,65.97
2017-09-12T15:40:38.864Z,64.53
2017-09-12T15:42:40.687Z,65.11
2017-09-12T15:44:42.159Z,65.11
2017-09-12T15:46:43.737Z,65.11
2017-09-12T15:48:45.238Z,66.84
2017-09-12T15:50:46.729Z,65.97
2017-09-12T15:52:48.310Z,66.16
2017-09-12T15:54:50.082Z,66.64
2017-09-12T15:56:51.620Z,65.01
2017-09-12T15:58:53.440Z,64.05
2017-09-12T16:00:55.112Z,64.59
2017-09-12T16:02:56.695Z,64.22
2017-09-12T16:04:58.310Z,65.46
2017-09-12T16:06:59.870Z,65.27
2017-09-12T16:09:01.220Z,65.27
2017-09-12T16:11:02.711Z,65.08
2017-09-12T16:13:04.246Z,64.12
2017-09-12T16:15:05.761Z,64.79
2017-09-12T16:17:07.327Z,64.98
2017-09-12T16:19:08.854Z,63.54
2017-09-12T16:21:10.343Z,64.12
2017-09-12T16:23:11.808Z,62.58
2017-09-12T16:25:13.283Z,63.73
2017-09-12T16:27:14.703Z,63.67
2017-09-12T16:29:16.129Z,62.99
2017-09-12T16:31:17.553Z,63.06
2017-09-12T16:33:19.011Z,63.16
2017-09-12T16:35:20.434Z,64.50
2017-09-12T16:37:21.859Z,63.79
2017-09-12T16:39:23.285Z,64.18
2017-09-12T16:41:24.702Z,64.09
2017-09-12T16:43:26.135Z,65.14
2017-09-12T16:45:27.560Z,64.18
2017-09-12T16:47:28.984Z,64.66
2017-09-12T16:49:30.408Z,64.95
2017-09-12T16:51:31.835Z,65.14
2017-09-12T16:53:33.259Z,64.76
2017-09-12T16:55:34.673Z,64.95
2017-09-12T16:57:36.103Z,64.09
2017-09-12T16:59:37.526Z,64.56
2017-09-12T17:01:38.944Z,65.23
2017-09-12T17:03:40.370Z,64.95
2017-09-12T17:05:41.807Z,65.14
2017-09-12T17:07:43.219Z,64.66
2017-09-12T17:09:44.732Z,65.33
2017-09-12T17:11:46.230Z,64.37
2017-09-12T17:13:47.712Z,64.85
2017-09-12T17:15:49.249Z,65.23
2017-09-12T17:17:50.787Z,65.81
2017-09-12T17:19:52.270Z,66.77
2017-09-12T17:21:53.732Z,66.49
2017-09-12T17:23:55.262Z,66.00
2017-09-12T17:25:56.763Z,66.00
2017-09-12T17:27:58.222Z,66.00
2017-09-12T17:29:59.734Z,65.91
2017-09-12T17:32:01.571Z,66.49
2017-09-12T17:34:03.281Z,66.45
2017-09-12T17:36:04.804Z,67.69
2017-09-12T17:38:06.420Z,66.74
2017-09-12T17:40:07.960Z,67.60
2017-09-12T17:42:09.451Z,67.02
2017-09-12T17:44:11.009Z,68.05
2017-09-12T17:46:12.523Z,68.24
2017-09-12T17:48:55.208Z,68.33
2017-09-12T17:50:56.631Z,68.91
2017-09-12T17:52:58.056Z,70.06
2017-09-12T17:54:59.699Z,68.91
2017-09-12T17:57:01.228Z,69.45
2017-09-12T17:59:02.713Z,69.74
2017-09-12T18:01:04.153Z,70.60
2017-09-12T18:03:05.574Z,70.03
2017-09-12T18:05:48.387Z,70.31
2017-09-12T18:07:49.639Z,69.93
2017-09-12T18:09:51.058Z,70.70
2017-09-12T18:11:52.942Z,70.98
2017-09-12T18:13:54.347Z,70.79
2017-09-12T18:15:55.762Z,70.79
2017-09-12T18:17:57.182Z,70.70
2017-09-12T18:19:58.601Z,70.79
2017-09-12T18:22:00.020Z,70.70
2017-09-12T18:24:01.447Z,71.17
2017-09-12T18:26:02.868Z,71.56
2017-09-12T18:28:04.297Z,71.27
2017-09-12T18:30:05.722Z,71.56
2017-09-12T18:32:07.131Z,71.37
2017-09-12T18:34:49.530Z,71.84
2017-09-12T18:36:50.951Z,70.31
2017-09-12T18:38:52.377Z,69.93
2017-09-12T18:40:54.267Z,70.70
2017-09-12T18:42:55.773Z,70.79
2017-09-12T18:44:57.362Z,70.70
2017-09-12T18:47:39.744Z,70.03
2017-09-12T18:49:41.161Z,70.31
2017-09-12T18:51:42.587Z,70.66
2017-09-12T18:53:44.010Z,70.09
2017-09-12T18:55:45.976Z,70.95
2017-09-12T18:57:47.519Z,71.23
2017-09-12T18:59:49.158Z,71.42
2017-09-12T19:01:50.590Z,70.76
2017-09-12T19:03:52.008Z,70.76
2017-09-12T19:05:53.426Z,71.23
2017-09-12T19:07:54.843Z,71.04
2017-09-12T19:09:56.280Z,71.71
2017-09-12T19:11:57.749Z,71.52
2017-09-12T19:13:59.169Z,71.71
2017-09-12T19:16:00.589Z,71.42
2017-09-12T19:18:02.006Z,71.81
2017-09-12T19:20:44.410Z,71.71
2017-09-12T19:22:45.829Z,71.14
2017-09-12T19:24:47.248Z,71.23
2017-09-12T19:26:48.673Z,70.95
2017-09-12T19:28:50.087Z,71.62
2017-09-12T19:30:51.504Z,71.62
2017-09-12T19:32:52.939Z,72.19
2017-09-12T19:34:54.338Z,71.71
2017-09-12T19:36:55.757Z,72.00
2017-09-12T19:38:57.182Z,71.81
2017-09-12T19:40:58.599Z,72.67
2017-09-12T19:43:00.616Z,71.71
2017-09-12T19:45:01.990Z,71.62
2017-09-12T19:47:03.460Z,72.34
2017-09-12T19:49:04.851Z,71.87
2017-09-12T19:51:06.268Z,72.25
2017-09-12T19:53:48.862Z,71.71
2017-09-12T19:55:50.546Z,71.87
2017-09-12T19:57:51.931Z,71.77
2017-09-12T19:59:53.350Z,71.97
2017-09-12T20:01:54.802Z,73.40
2017-09-12T20:03:56.223Z,73.79
2017-09-12T20:05:57.883Z,72.83
2017-09-12T20:08:40.315Z,73.88
2017-09-12T20:10:41.742Z,72.92
2017-09-12T20:12:43.160Z,72.83
2017-09-12T20:14:44.573Z,73.11
2017-09-12T20:16:45.996Z,73.50
2017-09-12T20:18:47.538Z,73.79
2017-09-12T20:20:48.968Z,73.79
2017-09-12T20:22:50.406Z,73.75
2017-09-12T20:25:33.610Z,73.17
2017-09-12T20:27:34.998Z,73.69
2017-09-12T20:29:36.413Z,74.61
2017-09-12T20:31:37.902Z,73.59
2017-09-12T20:33:39.313Z,73.02
2017-09-12T20:35:40.750Z,73.59
2017-09-12T20:37:42.167Z,73.02
2017-09-12T20:39:43.590Z,73.59
2017-09-12T20:41:45.007Z,74.13
2017-09-12T20:43:46.864Z,73.40
2017-09-12T20:45:48.512Z,73.88
2017-09-12T20:47:49.933Z,73.59
2017-09-12T20:49:51.387Z,74.16
2017-09-12T20:51:52.803Z,74.55
2017-09-12T20:53:54.227Z,72.92
2017-09-12T20:55:55.668Z,73.02
2017-09-12T20:57:57.100Z,72.92
2017-09-12T20:59:58.529Z,72.88
2017-09-12T21:01:59.950Z,73.75
2017-09-12T21:04:01.367Z,73.55
2017-09-12T21:06:02.806Z,74.38
2017-09-12T21:08:04.229Z,74.38
2017-09-12T21:10:05.645Z,74.95
2017-09-12T21:12:07.451Z,74.76
2017-09-12T21:14:08.942Z,74.66
2017-09-12T21:16:10.355Z,75.05
2017-09-12T21:18:11.830Z,75.05
2017-09-12T21:20:13.426Z,74.95
2017-09-12T21:22:15.003Z,75.24
2017-09-12T21:24:16.598Z,75.24
2017-09-12T21:26:18.163Z,75.34
2017-09-12T21:28:19.643Z,75.81
2017-09-12T21:30:21.163Z,75.91
2017-09-12T21:32:22.640Z,76.29
2017-09-12T21:34:24.088Z,77.34
2017-09-12T21:36:25.568Z,77.53
2017-09-12T21:38:26.981Z,78.49
2017-09-12T21:40:28.407Z,78.68
2017-09-12T21:42:29.835Z,79.54
2017-09-12T21:44:31.238Z,80.30
2017-09-12T21:46:32.666Z,80.59
2017-09-12T21:48:34.093Z,81.07
2017-09-12T21:50:35.524Z,81.65
2017-09-12T21:52:36.983Z,82.46
2017-09-12T21:54:38.465Z,82.56
2017-09-12T21:56:40.038Z,83.13
2017-09-12T21:58:41.562Z,82.98
2017-09-12T22:00:43.060Z,83.65
2017-09-12T22:03:25.450Z,83.75
2017-09-12T22:05:26.863Z,83.90
2017-09-12T22:07:28.283Z,84.28
2017-09-12T22:09:29.700Z,84.76
2017-09-12T22:11:31.115Z,85.05
2017-09-12T22:13:32.531Z,84.95
2017-09-12T22:15:33.946Z,85.33
2017-09-12T22:17:35.373Z,85.62
2017-09-12T22:19:36.786Z,85.62
2017-09-12T22:21:38.203Z,86.47
2017-09-12T22:23:39.623Z,86.19
2017-09-12T22:25:41.040Z,86.47
2017-09-12T22:27:43.004Z,86.47
2017-09-12T22:29:44.376Z,86.19
2017-09-12T22:31:45.791Z,86.47
2017-09-12T22:33:47.200Z,86.19
2017-09-12T22:35:48.616Z,86.57
2017-09-12T22:37:50.029Z,86.38
2017-09-12T22:39:51.450Z,86.67
2017-09-12T22:41:52.885Z,86.67
2017-09-12T22:43:54.359Z,87.24
2017-09-12T22:45:55.914Z,86.76
2017-09-12T22:47:57.408Z,87.53
2017-09-12T22:50:39.798Z,87.53
2017-09-12T22:52:41.768Z,87.72
2017-09-12T22:54:43.182Z,88.48
2017-09-12T22:56:44.596Z,88.48
2017-09-12T22:58:46.036Z,88.10
2017-09-12T23:00:47.442Z,88.10
2017-09-12T23:02:48.860Z,88.20
2017-09-12T23:04:50.272Z,88.48
2017-09-12T23:06:51.683Z,88.48
2017-09-12T23:08:53.127Z,88.39
2017-09-12T23:10:54.553Z,87.72
2017-09-12T23:12:55.973Z,87.62
2017-09-12T23:14:57.383Z,87.43
2017-09-12T23:16:58.802Z,88.39
2017-09-12T23:19:00.224Z,88.68
2017-09-12T23:21:01.635Z,88.87
2017-09-12T23:23:03.041Z,88.29
2017-09-12T23:25:04.516Z,88.29
2017-09-12T23:27:05.926Z,88.39
2017-09-12T23:29:07.341Z,87.82
2017-09-12T23:31:08.757Z,87.82
2017-09-12T23:33:10.179Z,87.43
2017-09-12T23:35:11.738Z,86.86
2017-09-12T23:37:54.112Z,88.01
2017-09-12T23:39:55.529Z,87.05
2017-09-12T23:41:56.945Z,87.53
2017-09-12T23:43:58.365Z,86.86
2017-09-12T23:46:00.217Z,86.29
2017-09-12T23:48:01.880Z,86.19
2017-09-12T23:50:03.297Z,86.19
2017-09-12T23:52:04.712Z,86.67
2017-09-12T23:54:47.131Z,86.29
2017-09-12T23:56:48.532Z,86.10
2017-09-12T23:58:49.947Z,85.90
